logo

United by the hobby
of model aircraft flying

Promoting safe
radio model flying

Sharing the experience
of RC flying

Dedicated to the sport of model aviation

Meeting
Venue

Third Monday Each Month
Crown Point Civic Center
101 S East Street
Crown Point, IN 46307

Read More

email:
[javascript protected email address]

View our events calendar

2020

Weather Conditions

Elev 730 ft    41.19°N  87.16°W

63.0 °F
200°
10 m/h
Wind Variable Wind from SSW

Current Conditions

Pressure 29.91 in
Visibility 9 miles
Clouds Overcast
Dew Point 60.1 °F
Humidity 90 %
Rainfall 0.00 in
 
METAR KVPZ 261356Z AUTO 20009KT 9SM OVC007 17/16 A2991 RMK AO2 SLP126 T01720156

Forecast

INFORMATION PROVIDED BY THE INDIANA STATE FORECAST - NATIONAL WEATHER SERVICE
Sunrise & Sunset
September 26, 2020
4:3 AM

6:40 PM
High 71 | Low 53°F
September 27, 2020
4:3 AM

6:40 PM
High | Low °F
 

our gallery

View All